Time;durP1;ratioP1;P1;durP2;ratioP2;P2;SDS_P1;SDS_P2;PMS_P1;PMS_P2;Temp;Humidity;BMP_temperature;BMP_pressure;BME280_temperature;BME280_humidity;BME280_pressure;Samples;Min_cycle;Max_cycle;Signal;HPM_P1;HPM_P2
2022/09/29 00:01:38;;;;;;;3.58;2.92;;;6.70;99.90;;;;;;5073197;28;20164;-66
2022/09/29 00:04:03;;;;;;;3.80;2.88;;;6.70;99.90;;;;;;5074538;28;20454;-65
2022/09/29 00:06:29;;;;;;;5.35;2.83;;;6.70;99.90;;;;;;5074020;28;20044;-65
2022/09/29 00:08:57;;;;;;;3.92;3.33;;;6.80;99.90;;;;;;5073040;28;20044;-65
2022/09/29 00:11:22;;;;;;;4.18;2.92;;;6.90;99.90;;;;;;5073909;28;20056;-66
2022/09/29 00:13:48;;;;;;;4.05;2.90;;;6.90;99.90;;;;;;5073401;28;20497;-65
2022/09/29 00:16:14;;;;;;;4.07;3.28;;;6.90;99.90;;;;;;5073571;28;20047;-66
2022/09/29 00:18:40;;;;;;;3.30;2.70;;;6.90;99.90;;;;;;5073587;28;20055;-65
2022/09/29 00:21:10;;;;;;;3.45;2.85;;;7.10;99.90;;;;;;5073595;28;20135;-66
2022/09/29 00:23:36;;;;;;;4.28;3.20;;;6.90;99.90;;;;;;5073197;28;20485;-65
2022/09/29 00:26:07;;;;;;;4.28;3.00;;;7.00;99.90;;;;;;5073477;28;20130;-65
2022/09/29 00:28:34;;;;;;;3.90;3.50;;;7.00;99.90;;;;;;5073273;28;20044;-65
2022/09/29 00:31:01;;;;;;;4.40;3.45;;;7.00;99.90;;;;;;5073440;28;20098;-65
2022/09/29 00:33:34;;;;;;;7.55;3.97;;;6.90;99.90;;;;;;5073112;28;20420;-65
2022/09/29 00:36:06;;;;;;;15.32;4.20;;;7.00;99.90;;;;;;5073153;28;20045;-65
2022/09/29 00:38:32;;;;;;;45.10;6.97;;;6.80;99.90;;;;;;5072695;28;20052;-65
2022/09/29 00:40:58;;;;;;;61.28;7.85;;;6.80;99.90;;;;;;5073226;28;20106;-65
2022/09/29 00:43:59;;;;;;;41.80;5.75;;;6.70;99.90;;;;;;5072991;28;20050;-65
2022/09/29 00:46:43;;;;;;;21.92;4.35;;;6.70;99.90;;;;;;5073347;28;20055;-65
2022/09/29 00:49:44;;;;;;;52.80;7.30;;;6.70;99.90;;;;;;5073545;28;20036;-65
2022/09/29 00:52:16;;;;;;;59.38;6.50;;;6.60;99.90;;;;;;5073765;28;20044;-66
2022/09/29 00:54:49;;;;;;;35.40;5.32;;;6.70;99.90;;;;;;5073213;28;20088;-66
2022/09/29 00:57:19;;;;;;;13.30;3.65;;;6.50;99.90;;;;;;5073739;28;20049;-66
2022/09/29 00:59:49;;;;;;;21.77;4.68;;;6.60;99.90;;;;;;5071861;28;20051;-66
2022/09/29 01:02:17;;;;;;;13.20;4.18;;;6.60;99.90;;;;;;5073665;28;20114;-66
2022/09/29 01:04:45;;;;;;;14.13;3.78;;;6.60;99.90;;;;;;5071832;28;20044;-66
2022/09/29 01:07:11;;;;;;;8.35;3.40;;;6.60;99.90;;;;;;5073571;28;20067;-66
2022/09/29 01:09:39;;;;;;;12.77;3.60;;;6.60;99.90;;;;;;5073731;28;20055;-67
2022/09/29 01:12:05;;;;;;;27.55;4.72;;;6.50;99.90;;;;;;5075786;28;20092;-66
2022/09/29 01:14:33;;;;;;;13.13;3.58;;;6.50;99.90;;;;;;5076714;28;20642;-66
2022/09/29 01:17:00;;;;;;;6.43;2.67;;;6.40;99.90;;;;;;5075998;28;20059;-66
2022/09/29 01:20:02;;;;;;;3.83;3.05;;;6.40;99.90;;;;;;5076851;28;20044;-66
2022/09/29 01:22:55;;;;;;;6.20;3.03;;;6.40;99.90;;;;;;5077211;28;20501;-66
2022/09/29 01:25:49;;;;;;;41.30;6.47;;;6.50;99.90;;;;;;5076642;28;20521;-66
2022/09/29 01:28:52;;;;;;;18.88;4.63;;;6.40;99.90;;;;;;5076807;28;20041;-67
2022/09/29 01:31:23;;;;;;;26.58;4.70;;;6.40;99.90;;;;;;5076013;28;20048;-67
2022/09/29 01:34:17;;;;;;;60.08;8.70;;;6.40;99.90;;;;;;5076691;28;20083;-66
2022/09/29 01:37:44;;;;;;;34.97;5.88;;;6.40;99.90;;;;;;5076674;28;20170;-67
2022/09/29 01:40:54;;;;;;;20.48;5.18;;;6.30;99.90;;;;;;5034213;28;20045;-66
2022/09/29 01:43:30;;;;;;;12.65;4.82;;;6.10;99.90;;;;;;5014395;28;20064;-67
2022/09/29 01:46:19;;;;;;;19.30;6.72;;;6.10;99.90;;;;;;5076143;28;20059;-66
2022/09/29 01:48:51;;;;;;;9.85;5.03;;;6.20;99.90;;;;;;5076424;28;20119;-66
2022/09/29 01:51:23;;;;;;;7.05;4.68;;;6.20;99.90;;;;;;5076106;28;20489;-66
2022/09/29 01:53:52;;;;;;;8.75;4.50;;;6.20;99.90;;;;;;5076366;28;20048;-66
2022/09/29 01:56:32;;;;;;;10.82;4.35;;;6.30;99.90;;;;;;5076287;28;20044;-66
2022/09/29 01:59:17;;;;;;;39.78;6.20;;;6.20;99.90;;;;;;5077020;28;20381;-66
2022/09/29 02:01:45;;;;;;;5.38;3.90;;;6.30;99.90;;;;;;5076173;28;20048;-66
2022/09/29 02:04:30;;;;;;;17.15;6.05;;;6.20;99.90;;;;;;5076070;28;20058;-67
2022/09/29 02:07:03;;;;;;;25.83;6.65;;;6.30;99.90;;;;;;5076419;28;20055;-67
2022/09/29 02:09:38;;;;;;;27.02;6.32;;;6.30;99.90;;;;;;5076855;28;20098;-66
2022/09/29 02:12:07;;;;;;;7.23;3.57;;;6.30;99.90;;;;;;5076013;28;20413;-66
2022/09/29 02:14:41;;;;;;;12.55;5.13;;;6.20;99.90;;;;;;5075908;28;20044;-66
2022/09/29 02:17:18;;;;;;;25.63;5.70;;;6.20;99.90;;;;;;5075726;28;20485;-66
2022/09/29 02:19:46;;;;;;;38.90;7.15;;;6.20;99.90;;;;;;5075745;28;20134;-66
2022/09/29 02:22:13;;;;;;;7.50;4.03;;;6.90;99.90;;;;;;5075330;28;20095;-66
2022/09/29 02:24:39;;;;;;;13.95;4.93;;;6.20;99.90;;;;;;5074545;28;20174;-65
2022/09/29 02:27:05;;;;;;;44.40;7.00;;;6.10;99.90;;;;;;5076244;28;20128;-66
2022/09/29 02:29:35;;;;;;;28.63;5.13;;;6.10;99.90;;;;;;5074692;28;20098;-66
2022/09/29 02:32:03;;;;;;;44.00;7.95;;;5.90;99.90;;;;;;5075597;28;20052;-66
2022/09/29 02:34:33;;;;;;;82.63;10.02;;;5.90;99.90;;;;;;5075524;28;20052;-66
2022/09/29 02:37:28;;;;;;;86.35;12.18;;;5.80;99.90;;;;;;5076416;28;20097;-66
2022/09/29 02:40:17;;;;;;;79.30;9.75;;;5.80;99.90;;;;;;5068103;28;20060;-66
2022/09/29 02:42:49;;;;;;;27.83;6.00;;;5.80;99.90;;;;;;5075175;28;20097;-66
2022/09/29 02:45:20;;;;;;;9.80;3.33;;;5.90;99.90;;;;;;5075380;28;20044;-66
2022/09/29 02:48:04;;;;;;;3.95;2.20;;;5.90;99.90;;;;;;5075356;28;20048;-66
2022/09/29 02:50:42;;;;;;;2.63;1.85;;;5.70;99.90;;;;;;5075694;28;20044;-66
2022/09/29 02:53:45;;;;;;;2.67;2.20;;;5.90;99.90;;;;;;5075269;28;20054;-66
2022/09/29 02:56:34;;;;;;;3.00;2.33;;;5.50;99.90;;;;;;5075179;28;20053;-65
2022/09/29 02:59:07;;;;;;;3.78;2.95;;;5.60;99.90;;;;;;5074736;28;20486;-65
2022/09/29 03:01:34;;;;;;;4.38;2.22;;;5.60;99.90;;;;;;5076134;28;20044;-66
2022/09/29 03:04:00;;;;;;;4.63;2.30;;;5.70;99.90;;;;;;5074980;28;20075;-65
2022/09/29 03:06:27;;;;;;;3.35;2.10;;;5.60;99.90;;;;;;5074634;28;20044;-65
2022/09/29 03:08:52;;;;;;;2.50;2.10;;;5.50;99.90;;;;;;5074787;28;20052;-65
2022/09/29 03:11:18;;;;;;;3.15;1.65;;;5.40;99.90;;;;;;5074790;28;20052;-65
2022/09/29 03:13:44;;;;;;;7.63;2.47;;;5.30;99.90;;;;;;5075354;28;20051;-65
2022/09/29 03:16:10;;;;;;;34.10;5.20;;;5.30;99.90;;;;;;5073828;28;20052;-66
2022/09/29 03:18:35;;;;;;;8.55;5.03;;;6.10;99.90;;;;;;5057155;28;20060;-66
2022/09/29 03:21:01;;;;;;;10.77;5.38;;;5.40;99.90;;;;;;5075728;28;20415;-66
2022/09/29 03:23:26;;;;;;;20.00;6.65;;;5.60;99.90;;;;;;5074616;28;20439;-66
2022/09/29 03:25:52;;;;;;;20.52;6.47;;;6.00;99.90;;;;;;5073289;28;20539;-66
2022/09/29 03:28:18;;;;;;;15.63;6.00;;;5.50;99.90;;;;;;5074456;28;20045;-66
2022/09/29 03:30:44;;;;;;;22.80;6.63;;;5.50;99.90;;;;;;5074318;28;20068;-67
2022/09/29 03:33:10;;;;;;;83.07;11.70;;;5.50;99.90;;;;;;5073439;28;20122;-66
2022/09/29 03:35:36;;;;;;;78.82;11.35;;;5.50;99.90;;;;;;5074415;28;20546;-66
2022/09/29 03:38:02;;;;;;;44.45;8.40;;;5.80;99.90;;;;;;5074893;28;20048;-66
2022/09/29 03:40:28;;;;;;;28.67;7.57;;;5.50;99.90;;;;;;5074796;28;20040;-66
2022/09/29 03:42:53;;;;;;;14.15;6.57;;;5.40;99.90;;;;;;5074267;28;20045;-66
2022/09/29 03:45:19;;;;;;;9.95;6.22;;;5.50;99.90;;;;;;5074497;28;20044;-66
2022/09/29 03:47:45;;;;;;;11.90;6.47;;;5.60;99.90;;;;;;5074234;28;20083;-66
2022/09/29 03:50:12;;;;;;;20.27;9.27;;;5.60;99.90;;;;;;5074545;28;20041;-66
2022/09/29 03:52:38;;;;;;;17.08;7.43;;;5.60;99.90;;;;;;5073996;28;20048;-66
2022/09/29 03:55:04;;;;;;;30.92;9.57;;;5.60;99.90;;;;;;5073267;28;20040;-66
2022/09/29 03:57:29;;;;;;;33.85;8.13;;;5.60;99.90;;;;;;5073952;28;20067;-66
2022/09/29 03:59:56;;;;;;;16.33;7.47;;;5.60;99.90;;;;;;5073792;28;20051;-66
2022/09/29 04:02:22;;;;;;;11.05;6.38;;;5.50;99.90;;;;;;5073872;28;20504;-67
2022/09/29 04:04:47;;;;;;;10.02;6.75;;;5.60;99.90;;;;;;5073752;28;20048;-66
2022/09/29 04:07:14;;;;;;;11.48;7.78;;;5.60;99.90;;;;;;5073765;28;20045;-66
2022/09/29 04:09:40;;;;;;;19.38;7.78;;;5.60;99.90;;;;;;5073694;28;20094;-66
2022/09/29 04:12:05;;;;;;;36.83;9.93;;;5.60;99.90;;;;;;5074098;28;20064;-66
2022/09/29 04:14:31;;;;;;;51.90;11.73;;;5.60;99.90;;;;;;5074209;28;20482;-66
2022/09/29 04:16:57;;;;;;;16.52;7.90;;;5.90;99.90;;;;;;5073417;28;20436;-65
2022/09/29 04:19:23;;;;;;;11.50;7.72;;;5.50;99.90;;;;;;5073430;28;20087;-66
2022/09/29 04:21:49;;;;;;;9.13;7.15;;;5.50;99.90;;;;;;5074387;28;20048;-66
2022/09/29 04:24:14;;;;;;;8.20;6.88;;;5.50;99.90;;;;;;5072518;28;20544;-66
2022/09/29 04:26:40;;;;;;;8.85;7.22;;;5.60;99.90;;;;;;5074219;28;20076;-66
2022/09/29 04:29:06;;;;;;;10.18;7.22;;;5.50;99.90;;;;;;5072475;28;20496;-66
2022/09/29 04:31:32;;;;;;;10.48;6.97;;;5.50;99.90;;;;;;5072260;28;20040;-65
2022/09/29 04:33:57;;;;;;;9.90;7.88;;;5.50;99.90;;;;;;5072730;28;20139;-66
2022/09/29 04:36:23;;;;;;;11.48;7.70;;;5.50;99.90;;;;;;5073307;28;20052;-65
2022/09/29 04:38:50;;;;;;;8.88;7.57;;;5.50;99.90;;;;;;5073291;28;20047;-66
2022/09/29 04:41:16;;;;;;;8.68;6.90;;;5.50;99.90;;;;;;5073378;28;20103;-66
2022/09/29 04:43:42;;;;;;;9.30;6.97;;;5.60;99.90;;;;;;5073085;28;20044;-66
2022/09/29 04:46:09;;;;;;;33.45;9.00;;;5.60;99.90;;;;;;5073230;28;20049;-66
2022/09/29 04:48:35;;;;;;;61.90;11.65;;;5.50;99.90;;;;;;5073281;28;20052;-66
2022/09/29 04:51:01;;;;;;;19.98;7.10;;;5.50;99.90;;;;;;5073727;28;20514;-66
2022/09/29 04:53:27;;;;;;;75.28;11.35;;;5.60;99.90;;;;;;5073189;28;20048;-66
2022/09/29 04:55:52;;;;;;;10.25;6.32;;;5.40;99.90;;;;;;5074188;28;20055;-65
2022/09/29 04:58:18;;;;;;;9.18;5.97;;;5.40;99.90;;;;;;5073215;28;20097;-65
2022/09/29 05:00:44;;;;;;;7.38;5.53;;;5.40;99.90;;;;;;5073087;28;20036;-66
2022/09/29 05:03:10;;;;;;;7.72;5.93;;;5.80;99.90;;;;;;5073287;28;20047;-66
2022/09/29 05:05:36;;;;;;;5.75;4.65;;;5.60;99.90;;;;;;5073092;28;20528;-66
2022/09/29 05:08:05;;;;;;;11.30;5.30;;;5.40;99.90;;;;;;5073115;28;20071;-66
2022/09/29 05:10:31;;;;;;;44.47;8.80;;;5.50;99.90;;;;;;5073558;28;20064;-66
2022/09/29 05:12:57;;;;;;;23.58;6.55;;;5.50;99.90;;;;;;5073628;28;20131;-66
2022/09/29 05:15:23;;;;;;;31.73;7.07;;;5.50;99.90;;;;;;5072814;28;20480;-66
2022/09/29 05:17:49;;;;;;;17.38;6.00;;;5.50;99.90;;;;;;5073006;28;20078;-66
2022/09/29 05:20:15;;;;;;;6.18;3.38;;;5.40;99.90;;;;;;5073195;28;20094;-66
2022/09/29 05:22:41;;;;;;;12.40;4.13;;;5.40;99.90;;;;;;5072625;28;20409;-67
2022/09/29 05:25:08;;;;;;;17.05;4.70;;;5.20;99.90;;;;;;5073604;28;20037;-67
2022/09/29 05:27:35;;;;;;;11.20;3.50;;;5.10;99.90;;;;;;5072240;28;20040;-67
2022/09/29 05:30:01;;;;;;;4.32;3.28;;;5.00;99.90;;;;;;5072721;28;20045;-67
2022/09/29 05:32:26;;;;;;;4.53;3.05;;;4.90;99.90;;;;;;5071762;28;20426;-67
2022/09/29 05:34:52;;;;;;;3.95;3.33;;;4.80;99.90;;;;;;5072952;28;20056;-67
2022/09/29 05:37:18;;;;;;;4.57;2.60;;;4.80;99.90;;;;;;5073160;28;20492;-67
2022/09/29 05:39:45;;;;;;;4.18;3.13;;;4.70;99.90;;;;;;5072918;28;20044;-66
2022/09/29 05:42:11;;;;;;;4.05;3.65;;;4.70;99.90;;;;;;5072636;28;20120;-66
2022/09/29 05:44:37;;;;;;;4.00;3.03;;;4.70;99.90;;;;;;5072747;28;20127;-66
2022/09/29 05:47:02;;;;;;;9.02;5.00;;;4.70;99.90;;;;;;5072728;28;20401;-66
2022/09/29 05:49:30;;;;;;;18.70;6.10;;;4.70;99.90;;;;;;5072634;28;20381;-66
2022/09/29 05:51:56;;;;;;;15.85;5.85;;;5.60;99.90;;;;;;5071915;28;20053;-66
2022/09/29 05:54:22;;;;;;;26.23;6.15;;;4.90;99.90;;;;;;5072866;28;20045;-66
2022/09/29 05:56:48;;;;;;;26.13;6.13;;;5.00;99.90;;;;;;5074100;28;20049;-66
2022/09/29 05:59:14;;;;;;;23.58;6.07;;;5.70;99.90;;;;;;5076229;28;20491;-66
2022/09/29 06:01:40;;;;;;;7.40;4.78;;;5.00;99.90;;;;;;5076111;28;20123;-66
2022/09/29 06:04:06;;;;;;;5.00;3.65;;;5.10;99.90;;;;;;5075153;28;20048;-66
2022/09/29 06:06:31;;;;;;;4.70;3.03;;;5.10;99.90;;;;;;5076425;28;20469;-66
2022/09/29 06:08:58;;;;;;;4.45;3.53;;;5.10;99.90;;;;;;5076303;28;20459;-66
2022/09/29 06:11:27;;;;;;;4.03;3.30;;;5.30;99.90;;;;;;5075918;28;20056;-65
2022/09/29 06:13:54;;;;;;;3.58;2.92;;;5.10;99.90;;;;;;5075912;28;20059;-66
2022/09/29 06:16:23;;;;;;;5.47;3.40;;;5.10;99.90;;;;;;5074949;28;20055;-61
2022/09/29 06:18:48;;;;;;;5.03;3.20;;;5.10;99.90;;;;;;5076142;28;20036;-61
2022/09/29 06:21:20;;;;;;;4.53;3.92;;;5.10;99.90;;;;;;5075252;28;20465;-61
2022/09/29 06:23:46;;;;;;;9.02;5.35;;;5.10;99.90;;;;;;5075806;28;20045;-61
2022/09/29 06:26:14;;;;;;;8.07;5.38;;;5.60;99.90;;;;;;5075661;28;20106;-62
2022/09/29 06:28:40;;;;;;;15.95;6.72;;;5.20;99.90;;;;;;5076244;28;20052;-61
2022/09/29 06:31:09;;;;;;;17.13;6.38;;;5.30;99.90;;;;;;5075634;28;20488;-61
2022/09/29 06:33:36;;;;;;;17.20;6.45;;;5.40;99.90;;;;;;5075481;28;20045;-61
2022/09/29 06:39:13;;;;;;;8.45;5.63;;;5.50;99.90;;;;;;5075079;28;20461;-61
2022/09/29 06:41:39;;;;;;;13.18;5.78;;;5.60;99.90;;;;;;5076158;28;20067;-61
2022/09/29 06:44:05;;;;;;;15.10;6.90;;;5.60;99.90;;;;;;5075337;28;20127;-61
2022/09/29 06:46:31;;;;;;;8.63;5.68;;;5.60;99.90;;;;;;5075892;28;20052;-62
2022/09/29 06:48:57;;;;;;;8.63;6.35;;;5.70;99.90;;;;;;5075715;28;20132;-61
2022/09/29 06:51:24;;;;;;;9.32;6.28;;;5.70;99.90;;;;;;5075273;28;20127;-61
2022/09/29 06:53:50;;;;;;;7.47;5.93;;;5.80;99.90;;;;;;5075061;28;20085;-61
2022/09/29 06:56:17;;;;;;;6.25;5.43;;;5.90;99.90;;;;;;5075154;28;20045;-61
2022/09/29 06:58:44;;;;;;;6.78;5.60;;;6.00;99.90;;;;;;5075623;28;20370;-61
2022/09/29 07:01:11;;;;;;;6.97;5.95;;;6.40;99.90;;;;;;5075055;28;20044;-61
2022/09/29 07:03:37;;;;;;;6.63;5.03;;;6.30;99.90;;;;;;5075039;28;20093;-61
2022/09/29 07:06:04;;;;;;;6.90;5.72;;;6.40;99.90;;;;;;5075772;28;20123;-62
2022/09/29 07:08:30;;;;;;;8.48;6.55;;;6.40;99.90;;;;;;5074178;28;20055;-61
2022/09/29 07:10:56;;;;;;;7.85;6.45;;;6.50;99.90;;;;;;5074765;28;20056;-61
2022/09/29 07:13:22;;;;;;;7.90;5.97;;;6.60;99.90;;;;;;5074584;28;20052;-62
2022/09/29 07:15:48;;;;;;;7.40;6.35;;;6.60;99.90;;;;;;5073991;28;20050;-62
2022/09/29 07:18:13;;;;;;;8.10;6.45;;;6.70;99.90;;;;;;5073059;28;20048;-62
2022/09/29 07:20:39;;;;;;;8.05;6.97;;;6.70;99.90;;;;;;5074484;28;20037;-61
2022/09/29 07:23:07;;;;;;;9.02;6.80;;;6.70;99.90;;;;;;5075390;28;20048;-62
2022/09/29 07:25:33;;;;;;;8.90;7.47;;;6.90;99.90;;;;;;5074575;28;20044;-60
2022/09/29 07:28:00;;;;;;;9.00;7.10;;;6.80;99.90;;;;;;5074463;28;20106;-62
2022/09/29 07:30:26;;;;;;;8.45;6.70;;;6.90;99.90;;;;;;5074338;28;20086;-61
2022/09/29 07:32:54;;;;;;;8.70;7.35;;;6.90;99.90;;;;;;5074327;28;20110;-60
2022/09/29 07:35:20;;;;;;;9.43;7.25;;;7.00;99.90;;;;;;5074285;28;20040;-61
2022/09/29 07:37:53;;;;;;;10.75;8.55;;;7.10;99.90;;;;;;5074249;28;20469;-61
2022/09/29 07:40:23;;;;;;;12.00;8.40;;;7.20;99.90;;;;;;5074029;28;20070;-61
2022/09/29 07:42:50;;;;;;;12.35;8.75;;;7.20;99.90;;;;;;5073137;28;20044;-61
2022/09/29 07:45:19;;;;;;;10.07;8.43;;;7.30;99.90;;;;;;5074125;28;20127;-61
2022/09/29 07:47:45;;;;;;;11.48;8.52;;;7.50;99.90;;;;;;5074508;28;20047;-61
2022/09/29 07:50:11;;;;;;;8.73;7.72;;;7.60;99.90;;;;;;5074570;28;20044;-61
2022/09/29 07:52:37;;;;;;;9.25;7.53;;;7.60;99.90;;;;;;5074493;28;20045;-61
2022/09/29 07:55:04;;;;;;;11.07;7.53;;;7.60;99.90;;;;;;5073724;28;20473;-61
2022/09/29 07:57:30;;;;;;;9.82;7.35;;;7.70;99.90;;;;;;5073847;28;20090;-61
2022/09/29 07:59:57;;;;;;;12.05;8.48;;;7.80;99.90;;;;;;5073827;28;20076;-61
2022/09/29 08:02:24;;;;;;;10.55;8.38;;;7.90;99.90;;;;;;5073666;28;20165;-61
2022/09/29 08:04:49;;;;;;;11.68;9.10;;;8.10;99.90;;;;;;5074212;28;20091;-61
2022/09/29 08:07:15;;;;;;;9.48;7.35;;;8.20;99.90;;;;;;5072174;28;20109;-61
2022/09/29 08:09:41;;;;;;;9.88;7.80;;;8.30;99.90;;;;;;5074087;28;20064;-61
2022/09/29 08:12:07;;;;;;;10.30;7.60;;;8.50;99.90;;;;;;5072540;28;20057;-61
2022/09/29 08:14:34;;;;;;;9.48;6.75;;;8.60;99.90;;;;;;5073865;28;20041;-62
2022/09/29 08:16:59;;;;;;;10.73;6.93;;;8.80;99.90;;;;;;5073454;28;20047;-61
2022/09/29 08:19:27;;;;;;;9.32;7.60;;;8.80;99.90;;;;;;5073059;28;20125;-61
2022/09/29 08:21:52;;;;;;;8.65;7.18;;;8.80;99.90;;;;;;5072869;28;20102;-61
2022/09/29 08:24:18;;;;;;;9.80;8.30;;;8.90;99.90;;;;;;5072300;28;20044;-61
2022/09/29 08:26:44;;;;;;;10.90;7.70;;;9.00;99.90;;;;;;5073738;28;20050;-61
2022/09/29 08:29:13;;;;;;;7.80;6.30;;;9.30;99.90;;;;;;5073392;28;20048;-63
2022/09/29 08:31:38;;;;;;;8.75;6.72;;;9.20;99.90;;;;;;5074152;28;20044;-61
2022/09/29 08:34:05;;;;;;;9.68;6.88;;;9.20;99.90;;;;;;5073827;28;20529;-61
2022/09/29 08:36:30;;;;;;;8.07;6.68;;;9.30;99.90;;;;;;5073862;28;20117;-61
2022/09/29 08:38:56;;;;;;;8.80;7.30;;;9.40;99.90;;;;;;5072865;28;20123;-61
2022/09/29 08:41:33;;;;;;;8.60;6.60;;;9.50;99.90;;;;;;5073885;28;20064;-60
2022/09/29 08:44:05;;;;;;;9.15;6.75;;;9.60;99.90;;;;;;5073832;28;20385;-61
2022/09/29 08:46:41;;;;;;;7.97;5.95;;;9.70;99.90;;;;;;5073258;28;20052;-62
2022/09/29 08:49:22;;;;;;;7.87;6.43;;;9.80;99.90;;;;;;5073278;28;20040;-61
2022/09/29 08:51:52;;;;;;;7.85;5.80;;;9.80;99.90;;;;;;5073181;28;20048;-61
2022/09/29 08:54:30;;;;;;;8.43;6.80;;;9.80;99.90;;;;;;5073152;28;20472;-61
2022/09/29 08:56:58;;;;;;;8.00;6.30;;;9.90;99.90;;;;;;5073276;28;20045;-61
2022/09/29 08:59:26;;;;;;;7.70;6.50;;;9.90;99.90;;;;;;5071826;28;20040;-61
2022/09/29 09:01:58;;;;;;;7.38;6.10;;;10.10;99.90;;;;;;5073046;28;20044;-60
2022/09/29 09:05:02;;;;;;;7.50;6.00;;;10.20;99.90;;;;;;5073056;28;20041;-61
2022/09/29 09:07:44;;;;;;;6.47;5.45;;;10.30;99.90;;;;;;5072637;28;20057;-60
2022/09/29 09:10:34;;;;;;;6.75;5.45;;;10.40;99.90;;;;;;5072943;28;20108;-61
2022/09/29 09:13:26;;;;;;;6.68;5.72;;;10.50;99.90;;;;;;5073490;28;20063;-61
2022/09/29 09:16:18;;;;;;;6.38;5.30;;;10.60;99.90;;;;;;5073227;28;20116;-61
2022/09/29 09:19:25;;;;;;;5.32;4.72;;;10.70;99.90;;;;;;5072934;28;20094;-61
2022/09/29 09:22:19;;;;;;;6.80;5.15;;;10.80;99.90;;;;;;5053095;28;20057;-61
2022/09/29 09:24:57;;;;;;;6.30;5.07;;;10.80;99.90;;;;;;5072619;28;20466;-61
2022/09/29 09:27:32;;;;;;;6.20;4.80;;;10.90;99.90;;;;;;5073408;28;20055;-61
2022/09/29 09:30:06;;;;;;;5.85;4.63;;;10.90;99.90;;;;;;5072815;28;20058;-62
2022/09/29 09:32:39;;;;;;;6.40;5.25;;;11.00;99.90;;;;;;5077404;28;20491;-61
2022/09/29 09:35:25;;;;;;;6.47;5.13;;;11.10;99.90;;;;;;5076661;28;20052;-61
2022/09/29 09:37:53;;;;;;;5.55;4.47;;;11.10;99.90;;;;;;5077081;28;20080;-61
2022/09/29 09:40:26;;;;;;;5.70;5.05;;;11.20;99.90;;;;;;5076185;28;20086;-61
2022/09/29 09:43:03;;;;;;;5.70;5.00;;;11.20;99.90;;;;;;5076605;28;20385;-62
2022/09/29 09:45:36;;;;;;;6.60;5.40;;;11.20;99.90;;;;;;5076471;28;20060;-62
2022/09/29 09:48:17;;;;;;;6.32;5.30;;;11.30;99.90;;;;;;5076218;28;20047;-61
2022/09/29 09:50:45;;;;;;;5.90;5.05;;;11.40;99.90;;;;;;5076177;28;20127;-61
2022/09/29 09:53:18;;;;;;;6.35;4.72;;;11.40;99.90;;;;;;5076065;28;20060;-62
2022/09/29 09:55:49;;;;;;;5.50;4.68;;;11.50;99.90;;;;;;5076529;28;20051;-62
2022/09/29 09:58:21;;;;;;;5.68;4.95;;;11.60;99.90;;;;;;5076542;28;20044;-62
2022/09/29 10:01:00;;;;;;;5.97;5.22;;;11.70;99.90;;;;;;5076789;28;20037;-62
2022/09/29 10:03:27;;;;;;;5.93;4.78;;;11.90;99.90;;;;;;5076704;28;20428;-62
2022/09/29 10:05:53;;;;;;;5.18;4.68;;;11.90;99.90;;;;;;5076039;28;20048;-62
2022/09/29 10:08:29;;;;;;;5.50;4.53;;;12.00;99.90;;;;;;5075947;28;20055;-62
2022/09/29 10:10:56;;;;;;;5.50;4.80;;;12.00;99.90;;;;;;5075660;28;20110;-62
2022/09/29 10:13:25;;;;;;;5.75;5.07;;;12.00;99.90;;;;;;5076458;28;20044;-63
2022/09/29 10:16:00;;;;;;;5.30;4.32;;;12.10;99.90;;;;;;5075791;28;20051;-62
2022/09/29 10:18:37;;;;;;;5.72;4.80;;;12.10;99.90;;;;;;5075188;28;20044;-62
2022/09/29 10:21:03;;;;;;;5.43;4.72;;;12.20;99.90;;;;;;5075817;28;20047;-63
2022/09/29 10:23:31;;;;;;;6.93;4.53;;;12.20;99.90;;;;;;5075515;28;20094;-62
2022/09/29 10:26:24;;;;;;;5.72;4.55;;;12.30;99.90;;;;;;5075752;28;20131;-62
2022/09/29 10:28:59;;;;;;;4.78;3.80;;;12.30;99.90;;;;;;5075653;28;20127;-62
2022/09/29 10:31:28;;;;;;;4.93;4.28;;;12.30;99.90;;;;;;5075654;28;20127;-62
2022/09/29 10:34:15;;;;;;;4.82;3.20;;;12.30;99.90;;;;;;5074548;28;20124;-62
2022/09/29 10:36:59;;;;;;;5.35;4.32;;;12.20;99.90;;;;;;5076376;28;20048;-61
2022/09/29 10:39:33;;;;;;;4.57;3.75;;;12.30;99.90;;;;;;5075374;28;20033;-61
2022/09/29 10:41:59;;;;;;;4.78;3.75;;;12.30;99.90;;;;;;5075077;28;20045;-61
2022/09/29 10:44:31;;;;;;;4.85;4.20;;;12.40;99.90;;;;;;5074692;28;20051;-61
2022/09/29 10:46:58;;;;;;;4.85;4.18;;;12.50;99.90;;;;;;5075397;28;20055;-62
2022/09/29 10:49:27;;;;;;;5.07;4.22;;;12.60;99.90;;;;;;5076078;28;20064;-61
2022/09/29 10:51:59;;;;;;;5.10;3.97;;;12.60;99.90;;;;;;5075540;28;20059;-61
2022/09/29 10:54:28;;;;;;;4.03;3.63;;;12.60;99.90;;;;;;5075219;28;20056;-61
2022/09/29 10:56:55;;;;;;;4.78;3.17;;;12.60;99.90;;;;;;5074225;28;20409;-61
2022/09/29 10:59:23;;;;;;;3.60;2.67;;;12.60;99.90;;;;;;5074979;28;20048;-61
2022/09/29 11:01:58;;;;;;;3.80;3.20;;;12.60;99.90;;;;;;5075334;28;20055;-61
2022/09/29 11:04:31;;;;;;;2.40;2.00;;;12.60;99.90;;;;;;5075759;28;20079;-61
2022/09/29 11:07:09;;;;;;;3.38;2.22;;;12.70;99.90;;;;;;5075547;28;20460;-61
2022/09/29 11:09:39;;;;;;;3.90;2.20;;;12.80;99.90;;;;;;5074430;28;20044;-63
2022/09/29 11:12:23;;;;;;;3.85;2.67;;;12.80;99.90;;;;;;5074755;28;20079;-61
2022/09/29 11:14:48;;;;;;;3.45;2.72;;;12.90;99.90;;;;;;5074925;28;20136;-62
2022/09/29 11:17:23;;;;;;;4.82;2.60;;;12.80;99.90;;;;;;5074550;28;20049;-62
2022/09/29 11:19:52;;;;;;;3.17;2.45;;;12.80;99.90;;;;;;5074663;28;20065;-62
2022/09/29 11:22:38;;;;;;;3.20;2.30;;;12.90;99.90;;;;;;5074640;28;20045;-62
2022/09/29 11:25:07;;;;;;;;;;;13.00;99.90;;;;;;5074947;28;20044;-62
2022/09/29 11:27:32;;;;;;;4.20;2.60;;;12.90;99.90;;;;;;5074552;28;19928;-62
2022/09/29 11:30:24;;;;;;;3.70;2.35;;;12.90;99.90;;;;;;5074539;28;20044;-61
2022/09/29 11:33:12;;;;;;;3.80;3.10;;;13.00;99.90;;;;;;5070036;28;20056;-61
2022/09/29 11:35:42;;;;;;;4.00;3.10;;;13.00;99.90;;;;;;5074805;28;20436;-61
2022/09/29 11:38:51;;;;;;;4.53;3.05;;;13.10;99.90;;;;;;5074880;28;20053;-61
2022/09/29 11:41:35;;;;;;;4.35;2.90;;;13.20;99.90;;;;;;5073295;28;20040;-62
2022/09/29 11:44:25;;;;;;;3.33;2.42;;;13.10;99.90;;;;;;5074449;28;20428;-61
2022/09/29 11:47:30;;;;;;;3.33;2.63;;;13.20;99.90;;;;;;5074156;28;20074;-61
2022/09/29 11:50:24;;;;;;;4.32;3.10;;;13.20;99.90;;;;;;5073967;28;20052;-61
2022/09/29 11:53:03;;;;;;;3.38;2.60;;;13.20;99.90;;;;;;5069672;28;20665;-62
2022/09/29 11:55:59;;;;;;;4.55;3.33;;;13.30;99.90;;;;;;5074339;28;20389;-62
2022/09/29 11:58:48;;;;;;;3.30;2.55;;;13.30;99.90;;;;;;5073624;28;20509;-62
2022/09/29 12:01:30;;;;;;;2.97;2.08;;;13.30;99.90;;;;;;5073616;28;20044;-62
2022/09/29 12:04:21;;;;;;;3.58;1.83;;;13.30;99.90;;;;;;5074287;28;20444;-61
2022/09/29 12:06:53;;;;;;;3.70;2.90;;;13.30;99.90;;;;;;5073786;28;20385;-61
2022/09/29 12:09:56;;;;;;;3.20;2.30;;;13.30;99.90;;;;;;5074556;28;20193;-62
2022/09/29 12:12:27;;;;;;;2.95;2.45;;;13.30;99.90;;;;;;5074186;28;20060;-62
2022/09/29 12:15:06;;;;;;;3.25;2.40;;;13.30;99.90;;;;;;5073641;28;20060;-61
2022/09/29 12:17:37;;;;;;;3.50;2.35;;;13.30;99.90;;;;;;5074163;28;20452;-62
2022/09/29 12:20:33;;;;;;;2.65;1.30;;;13.40;99.90;;;;;;5074180;28;20044;-61
2022/09/29 12:23:04;;;;;;;3.55;2.40;;;13.40;99.90;;;;;;5073581;28;20045;-61
2022/09/29 12:25:35;;;;;;;3.25;2.20;;;13.40;99.90;;;;;;5074063;28;20048;-62
2022/09/29 12:28:26;;;;;;;3.92;2.15;;;13.50;99.90;;;;;;5073915;28;20178;-62
2022/09/29 12:31:03;;;;;;;4.53;2.83;;;13.60;99.90;;;;;;5073391;28;20048;-62
2022/09/29 12:34:01;;;;;;;2.95;1.98;;;13.80;99.90;;;;;;5073434;28;20182;-62
2022/09/29 12:37:11;;;;;;;2.03;1.27;;;13.80;99.90;;;;;;5064452;28;20052;-61
2022/09/29 12:40:09;;;;;;;2.47;1.58;;;13.80;99.90;;;;;;5057206;28;20057;-61
2022/09/29 12:43:01;;;;;;;3.05;2.20;;;13.80;99.90;;;;;;5073258;28;20048;-61
2022/09/29 12:46:17;;;;;;;3.45;2.55;;;13.70;99.90;;;;;;5068496;28;20064;-61
2022/09/29 12:49:00;;;;;;;2.85;2.05;;;13.70;99.90;;;;;;5073126;28;20058;-62
2022/09/29 12:51:29;;;;;;;2.80;1.80;;;13.70;99.90;;;;;;5074049;28;20044;-61
2022/09/29 12:54:09;;;;;;;2.88;2.30;;;13.70;99.90;;;;;;5073197;28;20084;-61
2022/09/29 12:56:49;;;;;;;3.22;2.42;;;13.70;99.90;;;;;;5073769;28;20457;-62
2022/09/29 12:59:37;;;;;;;2.70;2.00;;;13.70;99.90;;;;;;5073433;28;20051;-61
2022/09/29 13:02:23;;;;;;;3.25;2.13;;;13.70;99.90;;;;;;5073135;28;20084;-62
2022/09/29 13:04:59;;;;;;;3.53;2.28;;;14.00;99.90;;;;;;5074647;28;20044;-62
2022/09/29 13:07:57;;;;;;;3.00;2.17;;;13.70;99.90;;;;;;5077283;28;20044;-61
2022/09/29 13:10:38;;;;;;;2.90;2.00;;;13.70;99.90;;;;;;5040025;28;20053;-61
2022/09/29 13:13:25;;;;;;;3.08;2.08;;;13.80;99.90;;;;;;5075846;28;20135;-61
2022/09/29 13:16:33;;;;;;;3.90;2.58;;;13.80;99.90;;;;;;5077026;28;20148;-61
2022/09/29 13:19:07;;;;;;;3.58;2.10;;;13.80;99.90;;;;;;5077195;28;20044;-61
2022/09/29 13:21:39;;;;;;;3.22;1.80;;;13.80;99.90;;;;;;5077509;28;20067;-61
2022/09/29 13:24:31;;;;;;;3.22;1.80;;;13.80;99.90;;;;;;5076894;28;20044;-61